createdAt,value
2023-05-23T00:00:40.260Z,69.37
2023-05-23T00:03:08.829Z,69.42
2023-05-23T00:05:36.877Z,69.21
2023-05-23T00:08:05.012Z,69.66
2023-05-23T00:10:33.470Z,69.49
2023-05-23T00:13:02.731Z,69.47
2023-05-23T00:15:31.048Z,69.37
2023-05-23T00:18:00.226Z,69.59
2023-05-23T00:20:28.874Z,69.54
2023-05-23T00:22:58.565Z,69.46
2023-05-23T00:25:34.342Z,69.84
2023-05-23T00:28:03.868Z,69.58
2023-05-23T00:30:32.835Z,69.67
2023-05-23T00:33:01.155Z,69.16
2023-05-23T00:35:28.991Z,69.77
2023-05-23T00:37:57.244Z,69.60
2023-05-23T00:40:25.092Z,69.61
2023-05-23T00:42:52.781Z,69.50
2023-05-23T00:45:22.167Z,69.35
2023-05-23T00:47:51.541Z,69.67
2023-05-23T00:50:19.677Z,69.70
2023-05-23T00:52:49.333Z,70.02
2023-05-23T00:55:17.201Z,70.11
2023-05-23T00:57:45.500Z,69.57
2023-05-23T01:00:15.332Z,70.11
2023-05-23T01:02:46.340Z,70.22
2023-05-23T01:05:17.622Z,70.05
2023-05-23T01:07:45.585Z,70.10
2023-05-23T01:10:14.475Z,70.57
2023-05-23T01:12:54.524Z,70.41
2023-05-23T01:15:28.269Z,70.64
2023-05-23T01:18:03.321Z,70.48
2023-05-23T01:20:36.307Z,70.74
2023-05-23T01:23:59.192Z,70.44
2023-05-23T01:26:42.401Z,70.61
2023-05-23T01:29:18.280Z,70.47
2023-05-23T01:31:47.958Z,70.22
2023-05-23T01:34:17.090Z,69.97
2023-05-23T01:36:45.026Z,69.95
2023-05-23T01:39:13.131Z,70.13
2023-05-23T01:41:40.926Z,70.05
2023-05-23T01:44:09.041Z,70.06
2023-05-23T01:46:39.926Z,69.76
2023-05-23T01:49:12.337Z,70.22
2023-05-23T01:51:43.388Z,70.42
2023-05-23T01:54:11.287Z,70.07
2023-05-23T01:56:39.396Z,70.04
2023-05-23T01:59:07.120Z,70.09
2023-05-23T02:01:35.432Z,70.39
2023-05-23T02:04:05.289Z,69.95
2023-05-23T02:06:33.224Z,70.10
2023-05-23T02:09:01.057Z,70.50
2023-05-23T02:11:28.884Z,70.52
2023-05-23T02:13:56.757Z,70.53
2023-05-23T02:16:26.166Z,70.91
2023-05-23T02:18:56.495Z,70.83
2023-05-23T02:21:25.791Z,70.81
2023-05-23T02:23:53.682Z,70.93
2023-05-23T02:26:21.602Z,70.79
2023-05-23T02:28:49.546Z,70.53
2023-05-23T02:31:18.129Z,70.82
2023-05-23T02:33:45.939Z,70.62
2023-05-23T02:36:13.631Z,70.55
2023-05-23T02:38:42.653Z,70.62
2023-05-23T02:41:10.465Z,70.28
2023-05-23T02:43:39.283Z,69.89
2023-05-23T02:46:07.145Z,69.54
2023-05-23T02:48:34.949Z,69.74
2023-05-23T02:51:02.767Z,69.70
2023-05-23T02:53:30.518Z,69.25
2023-05-23T02:55:59.880Z,69.10
2023-05-23T02:58:27.562Z,69.18
2023-05-23T03:00:55.651Z,68.91
2023-05-23T03:03:23.833Z,69.11
2023-05-23T03:05:51.619Z,68.56
2023-05-23T03:08:19.321Z,68.77
2023-05-23T03:10:47.232Z,68.85
2023-05-23T03:13:16.413Z,68.26
2023-05-23T03:15:44.180Z,68.24
2023-05-23T03:18:12.778Z,67.99
2023-05-23T03:20:40.635Z,68.00
2023-05-23T03:23:08.634Z,64.33
2023-05-23T03:25:36.377Z,65.74
2023-05-23T03:28:04.163Z,66.25
2023-05-23T03:30:33.515Z,66.40
2023-05-23T03:33:01.973Z,66.31
2023-05-23T03:35:29.725Z,66.02
2023-05-23T03:37:57.505Z,65.69
2023-05-23T03:40:25.414Z,65.81
2023-05-23T03:43:03.969Z,65.35
2023-05-23T03:45:33.782Z,65.40
2023-05-23T03:48:01.995Z,65.02
2023-05-23T03:50:29.788Z,65.41
2023-05-23T03:52:57.560Z,65.07
2023-05-23T03:55:26.008Z,65.40
2023-05-23T03:57:53.770Z,64.48
2023-05-23T04:00:21.678Z,64.76
2023-05-23T04:02:52.072Z,64.85
2023-05-23T04:05:20.194Z,65.18
2023-05-23T04:07:47.907Z,65.08
2023-05-23T04:10:15.629Z,64.83
2023-05-23T04:12:43.651Z,64.74
2023-05-23T04:15:11.732Z,65.41
2023-05-23T04:17:39.523Z,65.24
2023-05-23T04:20:10.945Z,65.16
2023-05-23T04:22:38.721Z,65.29
2023-05-23T04:25:07.431Z,65.06
2023-05-23T04:27:36.844Z,64.73
2023-05-23T04:30:09.231Z,65.19
2023-05-23T04:32:37.883Z,65.20
2023-05-23T04:35:05.995Z,64.90
2023-05-23T04:37:35.246Z,64.65
2023-05-23T04:40:04.063Z,64.84
2023-05-23T04:42:33.578Z,64.71
2023-05-23T04:45:02.383Z,64.79
2023-05-23T04:47:37.047Z,64.20
2023-05-23T04:50:05.714Z,64.46
2023-05-23T04:52:34.933Z,64.43
2023-05-23T04:55:03.007Z,63.76
2023-05-23T04:57:30.994Z,64.33
2023-05-23T04:59:58.714Z,63.46
2023-05-23T05:02:27.075Z,63.58
2023-05-23T05:04:54.880Z,63.14
2023-05-23T05:07:22.728Z,63.08
2023-05-23T05:09:51.800Z,62.67
2023-05-23T05:12:19.505Z,62.01
2023-05-23T05:14:47.265Z,62.24
2023-05-23T05:17:15.076Z,62.01
2023-05-23T05:19:42.747Z,61.39
2023-05-23T05:22:10.425Z,61.32
2023-05-23T05:24:38.157Z,61.61
2023-05-23T05:27:09.362Z,61.88
2023-05-23T05:29:37.496Z,61.39
2023-05-23T05:32:05.616Z,61.61
2023-05-23T05:34:33.459Z,61.40
2023-05-23T05:37:01.234Z,61.57
2023-05-23T05:39:28.904Z,61.48
2023-05-23T05:41:56.692Z,61.57
2023-05-23T05:44:27.104Z,61.29
2023-05-23T05:46:55.224Z,61.38
2023-05-23T05:49:23.203Z,61.39
2023-05-23T05:51:51.761Z,61.61
2023-05-23T05:54:19.526Z,60.99
2023-05-23T05:56:48.543Z,60.95
2023-05-23T05:59:16.277Z,61.45
2023-05-23T06:01:45.833Z,61.08
2023-05-23T06:04:14.012Z,61.02
2023-05-23T06:06:41.864Z,61.47
2023-05-23T06:09:10.646Z,61.36
2023-05-23T06:11:41.127Z,60.95
2023-05-23T06:14:09.546Z,61.18
2023-05-23T06:16:37.932Z,61.47
2023-05-23T06:19:07.027Z,61.34
2023-05-23T06:21:34.813Z,60.73
2023-05-23T06:24:02.577Z,61.28
2023-05-23T06:26:30.262Z,61.55
2023-05-23T06:28:58.010Z,61.65
2023-05-23T06:31:25.787Z,61.48
2023-05-23T06:33:54.403Z,61.25
2023-05-23T06:36:23.517Z,61.53
2023-05-23T06:38:51.407Z,60.91
2023-05-23T06:41:19.149Z,60.92
2023-05-23T06:43:46.861Z,61.23
2023-05-23T06:46:14.643Z,61.12
2023-05-23T06:48:42.425Z,61.17
2023-05-23T06:51:10.667Z,61.20
2023-05-23T06:53:39.769Z,61.25
2023-05-23T06:56:07.505Z,61.43
2023-05-23T06:58:35.629Z,61.17
2023-05-23T07:01:03.332Z,60.87
2023-05-23T07:03:31.114Z,60.71
2023-05-23T07:05:58.998Z,60.54
2023-05-23T07:08:26.912Z,60.65
2023-05-23T07:10:56.036Z,61.11
2023-05-23T07:13:23.811Z,60.75
2023-05-23T07:15:51.463Z,60.18
2023-05-23T07:18:19.257Z,59.13
2023-05-23T07:20:46.960Z,58.73
2023-05-23T07:23:14.701Z,58.95
2023-05-23T07:25:53.772Z,59.02
2023-05-23T07:28:30.699Z,58.33
2023-05-23T07:30:58.730Z,57.18
2023-05-23T07:33:26.631Z,57.04
2023-05-23T07:35:54.480Z,57.43
2023-05-23T07:38:22.167Z,57.89
2023-05-23T07:40:55.608Z,57.66
2023-05-23T07:43:36.470Z,57.37
2023-05-23T07:46:04.269Z,57.53
2023-05-23T07:48:32.226Z,57.74
2023-05-23T07:51:00.190Z,57.33
2023-05-23T07:53:27.945Z,57.69
2023-05-23T07:55:55.631Z,57.03
2023-05-23T07:58:23.707Z,57.72
2023-05-23T08:00:53.308Z,56.90
2023-05-23T08:03:21.288Z,57.80
2023-05-23T08:05:49.055Z,57.25
2023-05-23T08:08:17.412Z,57.44
2023-05-23T08:10:45.759Z,57.66
2023-05-23T08:13:13.915Z,57.36
2023-05-23T08:15:41.664Z,57.72
2023-05-23T08:18:11.389Z,57.38
2023-05-23T08:20:39.315Z,57.95
2023-05-23T08:23:07.212Z,57.59
2023-05-23T08:25:34.943Z,56.98
2023-05-23T08:28:03.082Z,56.21
2023-05-23T08:30:32.724Z,55.58
2023-05-23T08:33:04.765Z,55.15
2023-05-23T08:35:36.264Z,54.88
2023-05-23T08:38:07.815Z,54.42
2023-05-23T08:40:37.549Z,54.07
2023-05-23T08:43:05.952Z,53.76
2023-05-23T08:45:34.840Z,53.52
2023-05-23T08:48:04.036Z,53.77
2023-05-23T08:50:32.062Z,53.79
2023-05-23T08:53:01.251Z,53.85
2023-05-23T08:55:30.504Z,54.37
2023-05-23T08:58:00.472Z,54.72
2023-05-23T09:00:29.879Z,54.70
2023-05-23T09:02:58.409Z,55.01
2023-05-23T09:05:27.677Z,55.23
2023-05-23T09:07:56.790Z,55.58
2023-05-23T09:10:29.851Z,55.59
2023-05-23T09:12:58.415Z,54.82
2023-05-23T09:15:27.306Z,54.42
2023-05-23T09:17:55.141Z,54.35
2023-05-23T09:20:23.288Z,53.40
2023-05-23T09:22:51.314Z,53.03
2023-05-23T09:25:19.212Z,53.31
2023-05-23T09:27:54.239Z,53.79
2023-05-23T09:30:22.084Z,53.72
2023-05-23T09:33:04.097Z,54.30
2023-05-23T09:35:32.875Z,54.45
2023-05-23T09:38:00.640Z,54.92
2023-05-23T09:40:33.202Z,55.30
2023-05-23T09:43:05.497Z,55.50
2023-05-23T09:45:34.742Z,56.08
2023-05-23T09:48:02.804Z,56.09
2023-05-23T09:50:33.574Z,56.19
2023-05-23T09:53:02.264Z,56.34
2023-05-23T09:55:30.126Z,56.25
2023-05-23T09:58:00.818Z,56.41
2023-05-23T10:00:30.078Z,56.38
2023-05-23T10:03:08.201Z,56.41
2023-05-23T10:05:39.197Z,56.50
2023-05-23T10:08:12.121Z,56.60
2023-05-23T10:11:24.998Z,56.37
2023-05-23T10:13:53.305Z,56.29
2023-05-23T10:16:39.904Z,56.52
2023-05-23T10:19:12.111Z,55.91
2023-05-23T10:21:46.866Z,56.00
2023-05-23T10:24:16.070Z,56.50
2023-05-23T10:26:46.099Z,56.41
2023-05-23T10:29:13.840Z,56.05
2023-05-23T10:31:48.541Z,56.32
2023-05-23T10:34:24.293Z,56.69
2023-05-23T10:37:00.707Z,56.54
2023-05-23T10:39:36.354Z,56.15
2023-05-23T10:42:11.233Z,55.82
2023-05-23T10:44:38.994Z,56.03
2023-05-23T10:47:08.216Z,55.74
2023-05-23T10:49:39.951Z,55.56
2023-05-23T10:52:08.368Z,54.86
2023-05-23T10:54:37.089Z,54.77
2023-05-23T10:57:05.802Z,53.93
2023-05-23T10:59:33.777Z,53.14
2023-05-23T11:02:02.615Z,51.65
2023-05-23T11:04:31.779Z,51.53
2023-05-23T11:06:59.673Z,51.93
2023-05-23T11:09:27.625Z,52.00
2023-05-23T11:11:58.220Z,52.32
2023-05-23T11:14:55.665Z,52.41
2023-05-23T11:17:34.836Z,52.99
2023-05-23T11:20:07.196Z,53.55
2023-05-23T11:22:36.024Z,53.43
2023-05-23T11:25:08.419Z,53.62
2023-05-23T11:27:38.032Z,53.84
2023-05-23T11:30:09.339Z,53.78
2023-05-23T11:32:38.135Z,53.89
2023-05-23T11:35:10.532Z,53.91
2023-05-23T11:37:40.008Z,53.82
2023-05-23T11:40:28.187Z,54.16
2023-05-23T11:42:56.444Z,54.40
2023-05-23T11:45:24.780Z,54.39
2023-05-23T11:47:52.844Z,54.64
2023-05-23T11:50:22.017Z,54.76
2023-05-23T11:52:52.346Z,54.61
2023-05-23T11:55:21.061Z,54.59
2023-05-23T11:57:49.690Z,54.48
2023-05-23T12:00:18.847Z,54.85
2023-05-23T12:02:48.824Z,54.79
2023-05-23T12:05:17.149Z,54.68
2023-05-23T12:07:47.545Z,54.58
2023-05-23T12:10:16.720Z,54.13
2023-05-23T12:12:45.304Z,53.98
2023-05-23T12:15:14.068Z,53.97
2023-05-23T12:17:45.856Z,53.84
2023-05-23T12:20:13.824Z,54.13
2023-05-23T12:22:43.051Z,53.52
2023-05-23T12:25:12.523Z,53.41
2023-05-23T12:27:43.959Z,53.30
2023-05-23T12:30:14.684Z,53.22
2023-05-23T12:32:43.599Z,53.01
2023-05-23T12:35:13.209Z,53.00
2023-05-23T12:37:43.012Z,53.12
2023-05-23T12:40:14.289Z,52.74
2023-05-23T12:42:51.717Z,53.06
2023-05-23T12:45:19.647Z,53.01
2023-05-23T12:47:47.397Z,53.00
2023-05-23T12:50:15.159Z,53.37
2023-05-23T12:52:42.927Z,53.37
2023-05-23T12:55:12.272Z,53.23
2023-05-23T12:57:40.022Z,52.91
2023-05-23T13:00:09.180Z,52.54
2023-05-23T13:02:37.430Z,52.53
2023-05-23T13:05:05.658Z,52.08
2023-05-23T13:07:33.753Z,52.05
2023-05-23T13:10:02.871Z,52.00
2023-05-23T13:12:33.002Z,52.00
2023-05-23T13:15:00.736Z,51.79
2023-05-23T13:17:28.485Z,51.97
2023-05-23T13:19:56.572Z,52.03
2023-05-23T13:22:24.583Z,51.36
2023-05-23T13:24:52.301Z,51.83
2023-05-23T13:27:20.121Z,51.90
2023-05-23T13:29:49.316Z,51.66
2023-05-23T13:32:16.994Z,51.53
2023-05-23T13:34:44.730Z,51.85
2023-05-23T13:37:12.451Z,52.01
2023-05-23T13:39:40.382Z,51.88
2023-05-23T13:42:09.106Z,51.87
2023-05-23T13:44:37.231Z,50.72
2023-05-23T13:47:13.867Z,50.53
2023-05-23T13:49:41.813Z,50.36
2023-05-23T13:52:09.614Z,50.65
2023-05-23T13:54:37.472Z,50.12
2023-05-23T13:57:05.844Z,49.64
2023-05-23T13:59:33.648Z,50.30
2023-05-23T14:02:01.565Z,49.41
2023-05-23T14:04:30.759Z,50.29
2023-05-23T14:06:58.507Z,49.67
2023-05-23T14:09:26.268Z,50.29
2023-05-23T14:11:53.987Z,50.56
2023-05-23T14:14:21.728Z,50.70
2023-05-23T14:16:51.776Z,50.77
2023-05-23T14:19:19.805Z,51.05
2023-05-23T14:21:48.853Z,51.47
2023-05-23T14:24:16.890Z,51.46
2023-05-23T14:26:44.781Z,51.63
2023-05-23T14:29:12.554Z,51.74
2023-05-23T14:31:40.335Z,51.47
2023-05-23T14:34:08.026Z,51.32
2023-05-23T14:36:37.043Z,51.70
2023-05-23T14:39:09.088Z,51.89
2023-05-23T14:41:38.628Z,51.65
2023-05-23T14:44:06.814Z,51.43
2023-05-23T14:46:34.699Z,51.56
2023-05-23T14:49:02.370Z,51.64
2023-05-23T14:51:44.837Z,51.08
2023-05-23T14:54:15.944Z,50.75
2023-05-23T14:56:43.808Z,51.24
2023-05-23T14:59:12.088Z,51.33
2023-05-23T15:01:40.740Z,51.39
2023-05-23T15:04:09.862Z,51.34
2023-05-23T15:06:38.443Z,51.32
2023-05-23T15:09:07.592Z,51.09
2023-05-23T15:11:38.570Z,51.69
2023-05-23T15:14:06.438Z,52.09
2023-05-23T15:16:36.826Z,51.86
2023-05-23T15:19:05.487Z,52.27
2023-05-23T15:21:33.279Z,52.13
2023-05-23T15:24:01.346Z,52.07
2023-05-23T15:26:29.433Z,51.76
2023-05-23T15:28:58.578Z,51.44
2023-05-23T15:31:26.593Z,51.67
2023-05-23T15:33:54.297Z,51.64
2023-05-23T15:36:22.207Z,51.54
2023-05-23T15:38:50.086Z,52.25
2023-05-23T15:41:17.912Z,52.41
2023-05-23T15:43:45.592Z,52.58
2023-05-23T15:46:14.843Z,52.65
2023-05-23T15:48:42.617Z,52.81
2023-05-23T15:51:10.318Z,51.92
2023-05-23T15:53:57.927Z,52.82
2023-05-23T15:56:26.037Z,52.80
2023-05-23T15:58:53.799Z,52.80
2023-05-23T16:01:23.065Z,52.56
2023-05-23T16:03:50.881Z,52.81
2023-05-23T16:06:18.677Z,52.70
2023-05-23T16:08:46.463Z,51.78
2023-05-23T16:11:14.262Z,51.87
2023-05-23T16:13:41.979Z,52.04
2023-05-23T16:16:09.908Z,51.82
2023-05-23T16:18:38.984Z,51.75
2023-05-23T16:21:06.882Z,51.54
2023-05-23T16:23:34.627Z,51.61
2023-05-23T16:26:02.408Z,51.65
2023-05-23T16:28:30.158Z,52.11
2023-05-23T16:30:57.927Z,52.06
2023-05-23T16:33:25.613Z,52.19
2023-05-23T16:35:54.825Z,52.41
2023-05-23T16:38:22.675Z,52.23
2023-05-23T16:40:50.437Z,52.58
2023-05-23T16:43:18.214Z,53.03
2023-05-23T16:45:46.255Z,52.63
2023-05-23T16:48:14.318Z,52.72
2023-05-23T16:50:42.719Z,51.73
2023-05-23T16:53:12.191Z,51.94
2023-05-23T16:55:40.175Z,51.31
2023-05-23T16:58:08.124Z,51.20
2023-05-23T17:00:35.869Z,50.83
2023-05-23T17:03:05.097Z,50.82
2023-05-23T17:05:33.537Z,51.30
2023-05-23T17:08:02.450Z,50.83
2023-05-23T17:10:31.581Z,50.74
2023-05-23T17:12:59.297Z,51.41
2023-05-23T17:15:27.018Z,51.48
2023-05-23T17:17:54.927Z,51.20
2023-05-23T17:20:24.362Z,51.60
2023-05-23T17:22:52.716Z,51.37
2023-05-23T17:25:20.546Z,50.95
2023-05-23T17:27:49.577Z,50.58
2023-05-23T17:30:18.552Z,50.39
2023-05-23T17:32:47.385Z,50.29
2023-05-23T17:35:15.725Z,50.71
2023-05-23T17:37:44.903Z,50.42
2023-05-23T17:40:13.355Z,50.88
2023-05-23T17:42:41.652Z,50.58
2023-05-23T17:45:11.525Z,50.16
2023-05-23T17:47:39.335Z,50.55
2023-05-23T17:50:08.524Z,50.44
2023-05-23T17:52:36.503Z,50.68
2023-05-23T17:55:04.434Z,50.39
2023-05-23T17:57:32.204Z,50.82
2023-05-23T18:00:00.196Z,50.87
2023-05-23T18:02:29.322Z,50.27
2023-05-23T18:04:57.480Z,50.52
2023-05-23T18:07:25.322Z,50.43
2023-05-23T18:09:52.975Z,50.54
2023-05-23T18:12:20.719Z,50.56
2023-05-23T18:14:49.452Z,50.55
2023-05-23T18:17:18.535Z,50.45
2023-05-23T18:19:47.986Z,50.37
2023-05-23T18:22:16.630Z,50.66
2023-05-23T18:24:44.527Z,49.61
2023-05-23T18:27:12.338Z,49.38
2023-05-23T18:29:40.003Z,49.23
2023-05-23T18:32:08.132Z,49.43
2023-05-23T18:34:35.867Z,49.03
2023-05-23T18:37:05.102Z,48.95
2023-05-23T18:39:32.760Z,49.42
2023-05-23T18:42:00.526Z,48.84
2023-05-23T18:44:28.213Z,48.70
2023-05-23T18:46:55.909Z,47.75
2023-05-23T18:49:23.641Z,48.72
2023-05-23T18:51:54.296Z,48.62
2023-05-23T18:54:23.335Z,47.92
2023-05-23T18:56:51.038Z,47.63
2023-05-23T18:59:18.713Z,47.84
2023-05-23T19:01:46.453Z,47.35
2023-05-23T19:04:14.289Z,46.75
2023-05-23T19:06:42.017Z,46.69
2023-05-23T19:09:11.502Z,47.46
2023-05-23T19:11:40.971Z,47.13
2023-05-23T19:14:08.624Z,46.20
2023-05-23T19:16:36.497Z,46.92
2023-05-23T19:19:04.516Z,46.62
2023-05-23T19:21:32.557Z,46.81
2023-05-23T19:24:00.452Z,46.95
2023-05-23T19:26:28.134Z,47.26
2023-05-23T19:28:57.105Z,46.71
2023-05-23T19:31:24.880Z,47.11
2023-05-23T19:33:52.640Z,46.76
2023-05-23T19:36:20.316Z,47.03
2023-05-23T19:38:48.021Z,47.17
2023-05-23T19:41:15.757Z,46.65
2023-05-23T19:43:43.678Z,46.85
2023-05-23T19:46:13.588Z,46.81
2023-05-23T19:48:41.348Z,46.45
2023-05-23T19:51:09.077Z,46.83
2023-05-23T19:53:36.696Z,47.12
2023-05-23T19:56:04.662Z,46.92
2023-05-23T19:58:32.324Z,47.15
2023-05-23T20:01:00.025Z,47.14
2023-05-23T20:03:29.529Z,47.25
2023-05-23T20:05:57.701Z,47.40
2023-05-23T20:08:25.378Z,47.77
2023-05-23T20:10:53.124Z,47.63
2023-05-23T20:13:21.442Z,49.27
2023-05-23T20:15:49.197Z,49.09
2023-05-23T20:18:17.624Z,48.71
2023-05-23T20:20:46.638Z,48.76
2023-05-23T20:23:14.404Z,48.98
2023-05-23T20:25:43.238Z,49.16
2023-05-23T20:28:11.070Z,49.28
2023-05-23T20:30:38.781Z,48.63
2023-05-23T20:33:06.553Z,48.82
2023-05-23T20:35:34.208Z,48.39
2023-05-23T20:38:03.627Z,48.86
2023-05-23T20:40:33.553Z,48.80
2023-05-23T20:43:04.723Z,49.14
2023-05-23T20:45:33.093Z,49.09
2023-05-23T20:48:01.471Z,49.26
2023-05-23T20:50:31.211Z,49.11
2023-05-23T20:53:00.666Z,49.48
2023-05-23T20:55:34.864Z,49.60
2023-05-23T20:58:02.686Z,49.72
2023-05-23T21:00:30.413Z,49.45
2023-05-23T21:02:58.176Z,49.58
2023-05-23T21:05:26.255Z,49.45
2023-05-23T21:07:54.094Z,49.74
2023-05-23T21:10:22.200Z,49.78
2023-05-23T21:12:51.669Z,50.05
2023-05-23T21:15:19.581Z,50.08
2023-05-23T21:17:47.393Z,50.19
2023-05-23T21:20:16.180Z,50.16
2023-05-23T21:22:43.987Z,50.56
2023-05-23T21:25:12.065Z,50.49
2023-05-23T21:27:41.003Z,50.45
2023-05-23T21:30:11.839Z,50.90
2023-05-23T21:32:39.536Z,51.41
2023-05-23T21:35:08.577Z,51.28
2023-05-23T21:37:36.218Z,51.37
2023-05-23T21:40:04.049Z,51.72
2023-05-23T21:42:31.799Z,51.88
2023-05-23T21:44:59.445Z,51.44
2023-05-23T21:47:28.441Z,51.87
2023-05-23T21:49:56.095Z,51.62
2023-05-23T21:52:23.711Z,52.12
2023-05-23T21:54:51.630Z,52.19
2023-05-23T21:57:19.345Z,51.79
2023-05-23T21:59:47.095Z,52.37
2023-05-23T22:02:15.419Z,51.77
2023-05-23T22:04:44.811Z,52.29
2023-05-23T22:07:12.575Z,52.09
2023-05-23T22:09:40.207Z,52.45
2023-05-23T22:12:08.212Z,52.08
2023-05-23T22:14:35.830Z,52.45
2023-05-23T22:17:04.258Z,52.39
2023-05-23T22:19:32.032Z,52.28
2023-05-23T22:22:01.197Z,52.06
2023-05-23T22:24:29.195Z,52.02
2023-05-23T22:26:58.272Z,52.22
2023-05-23T22:29:26.249Z,52.30
2023-05-23T22:31:54.058Z,52.55
2023-05-23T22:34:21.786Z,52.08
2023-05-23T22:36:49.474Z,52.25
2023-05-23T22:39:18.621Z,52.15
2023-05-23T22:41:46.739Z,52.49
2023-05-23T22:44:14.373Z,52.68
2023-05-23T22:46:43.350Z,52.76
2023-05-23T22:49:11.183Z,52.91
2023-05-23T22:51:38.833Z,52.93
2023-05-23T22:54:06.612Z,52.81
2023-05-23T22:56:35.733Z,52.70
2023-05-23T22:59:03.337Z,53.02
2023-05-23T23:01:31.410Z,52.48
2023-05-23T23:03:59.136Z,52.84
2023-05-23T23:06:26.840Z,52.67
2023-05-23T23:08:54.506Z,52.95
2023-05-23T23:11:22.271Z,53.06
2023-05-23T23:13:51.273Z,52.81
2023-05-23T23:16:19.510Z,52.97
2023-05-23T23:18:47.315Z,53.26
2023-05-23T23:21:15.010Z,53.06
2023-05-23T23:23:42.767Z,53.33
2023-05-23T23:26:10.753Z,52.91
2023-05-23T23:28:38.707Z,53.36
2023-05-23T23:31:07.766Z,52.70
2023-05-23T23:33:35.599Z,53.16
2023-05-23T23:36:03.355Z,52.81
2023-05-23T23:38:31.020Z,52.94
2023-05-23T23:40:58.691Z,53.17
2023-05-23T23:43:26.329Z,52.86
2023-05-23T23:45:53.996Z,53.45
2023-05-23T23:48:23.036Z,53.18
2023-05-23T23:50:50.686Z,52.92
2023-05-23T23:53:21.311Z,53.21
2023-05-23T23:55:49.114Z,53.32
2023-05-23T23:58:17.312Z,53.27
